sensor_id;sensor_type;location;lat;lon;timestamp;P1;durP1;ratioP1;P2;durP2;ratioP2
16957;SDS011;8595;52.542;11.974;2023-04-03T00:01:24;5.00;;;2.93;;
16957;SDS011;8595;52.542;11.974;2023-04-03T00:03:51;9.17;;;2.50;;
16957;SDS011;8595;52.542;11.974;2023-04-03T00:06:19;6.07;;;2.70;;
16957;SDS011;8595;52.542;11.974;2023-04-03T00:08:46;5.97;;;2.80;;
16957;SDS011;8595;52.542;11.974;2023-04-03T00:11:13;9.77;;;2.27;;
16957;SDS011;8595;52.542;11.974;2023-04-03T00:13:41;10.37;;;3.13;;
16957;SDS011;8595;52.542;11.974;2023-04-03T00:16:08;5.00;;;2.47;;
16957;SDS011;8595;52.542;11.974;2023-04-03T00:18:38;9.00;;;2.37;;
16957;SDS011;8595;52.542;11.974;2023-04-03T00:21:06;15.67;;;2.60;;
16957;SDS011;8595;52.542;11.974;2023-04-03T00:23:34;7.67;;;2.70;;
16957;SDS011;8595;52.542;11.974;2023-04-03T00:26:01;6.03;;;2.63;;
16957;SDS011;8595;52.542;11.974;2023-04-03T00:28:28;5.83;;;2.80;;
16957;SDS011;8595;52.542;11.974;2023-04-03T00:30:55;6.70;;;2.80;;
16957;SDS011;8595;52.542;11.974;2023-04-03T00:33:22;10.50;;;2.90;;
16957;SDS011;8595;52.542;11.974;2023-04-03T00:35:49;5.50;;;2.37;;
16957;SDS011;8595;52.542;11.974;2023-04-03T00:38:17;3.60;;;1.87;;
16957;SDS011;8595;52.542;11.974;2023-04-03T00:40:46;8.53;;;3.13;;
16957;SDS011;8595;52.542;11.974;2023-04-03T00:43:15;3.97;;;2.20;;
16957;SDS011;8595;52.542;11.974;2023-04-03T00:45:46;6.73;;;2.80;;
16957;SDS011;8595;52.542;11.974;2023-04-03T00:48:14;8.40;;;3.13;;
16957;SDS011;8595;52.542;11.974;2023-04-03T00:50:43;6.30;;;2.50;;
16957;SDS011;8595;52.542;11.974;2023-04-03T00:53:12;5.73;;;2.40;;
16957;SDS011;8595;52.542;11.974;2023-04-03T00:55:42;7.93;;;2.60;;
16957;SDS011;8595;52.542;11.974;2023-04-03T00:58:11;8.17;;;2.60;;
16957;SDS011;8595;52.542;11.974;2023-04-03T01:00:42;4.70;;;2.20;;
16957;SDS011;8595;52.542;11.974;2023-04-03T01:03:12;7.53;;;2.93;;
16957;SDS011;8595;52.542;11.974;2023-04-03T01:05:39;5.70;;;2.40;;
16957;SDS011;8595;52.542;11.974;2023-04-03T01:08:06;5.63;;;2.50;;
16957;SDS011;8595;52.542;11.974;2023-04-03T01:10:33;6.07;;;2.40;;
16957;SDS011;8595;52.542;11.974;2023-04-03T01:13:00;5.90;;;2.30;;
16957;SDS011;8595;52.542;11.974;2023-04-03T01:15:28;6.87;;;2.47;;
16957;SDS011;8595;52.542;11.974;2023-04-03T01:17:59;4.60;;;2.43;;
16957;SDS011;8595;52.542;11.974;2023-04-03T01:23:40;4.77;;;2.20;;
16957;SDS011;8595;52.542;11.974;2023-04-03T01:26:14;4.73;;;2.50;;
16957;SDS011;8595;52.542;11.974;2023-04-03T01:28:41;2.80;;;1.93;;
16957;SDS011;8595;52.542;11.974;2023-04-03T01:31:12;3.07;;;1.80;;
16957;SDS011;8595;52.542;11.974;2023-04-03T01:33:47;6.43;;;2.10;;
16957;SDS011;8595;52.542;11.974;2023-04-03T01:36:15;7.83;;;2.47;;
16957;SDS011;8595;52.542;11.974;2023-04-03T01:38:43;5.27;;;2.30;;
16957;SDS011;8595;52.542;11.974;2023-04-03T01:41:10;8.00;;;2.63;;
16957;SDS011;8595;52.542;11.974;2023-04-03T01:43:37;5.77;;;2.30;;
16957;SDS011;8595;52.542;11.974;2023-04-03T01:46:04;7.93;;;2.80;;
16957;SDS011;8595;52.542;11.974;2023-04-03T01:48:30;7.77;;;2.60;;
16957;SDS011;8595;52.542;11.974;2023-04-03T01:50:58;4.60;;;2.00;;
16957;SDS011;8595;52.542;11.974;2023-04-03T01:53:25;4.97;;;2.40;;
16957;SDS011;8595;52.542;11.974;2023-04-03T01:55:51;4.60;;;2.50;;
16957;SDS011;8595;52.542;11.974;2023-04-03T01:58:18;5.43;;;2.40;;
16957;SDS011;8595;52.542;11.974;2023-04-03T02:00:45;5.33;;;2.17;;
16957;SDS011;8595;52.542;11.974;2023-04-03T02:03:11;5.67;;;2.50;;
16957;SDS011;8595;52.542;11.974;2023-04-03T02:05:38;2.77;;;2.53;;
16957;SDS011;8595;52.542;11.974;2023-04-03T02:08:06;7.87;;;2.40;;
16957;SDS011;8595;52.542;11.974;2023-04-03T02:10:33;9.60;;;2.60;;
16957;SDS011;8595;52.542;11.974;2023-04-03T02:13:00;4.40;;;2.20;;
16957;SDS011;8595;52.542;11.974;2023-04-03T02:15:27;2.67;;;2.33;;
16957;SDS011;8595;52.542;11.974;2023-04-03T02:17:53;7.77;;;2.77;;
16957;SDS011;8595;52.542;11.974;2023-04-03T02:20:20;5.80;;;2.23;;
16957;SDS011;8595;52.542;11.974;2023-04-03T02:22:47;5.77;;;2.40;;
16957;SDS011;8595;52.542;11.974;2023-04-03T02:25:15;6.90;;;2.70;;
16957;SDS011;8595;52.542;11.974;2023-04-03T02:27:43;3.83;;;2.53;;
16957;SDS011;8595;52.542;11.974;2023-04-03T02:30:10;6.20;;;2.30;;
16957;SDS011;8595;52.542;11.974;2023-04-03T02:32:38;5.90;;;2.60;;
16957;SDS011;8595;52.542;11.974;2023-04-03T02:35:06;4.13;;;1.80;;
16957;SDS011;8595;52.542;11.974;2023-04-03T02:37:33;5.33;;;2.10;;
16957;SDS011;8595;52.542;11.974;2023-04-03T02:39:59;5.57;;;2.60;;
16957;SDS011;8595;52.542;11.974;2023-04-03T02:42:28;8.37;;;2.70;;
16957;SDS011;8595;52.542;11.974;2023-04-03T02:44:54;8.67;;;2.80;;
16957;SDS011;8595;52.542;11.974;2023-04-03T02:47:23;7.50;;;3.33;;
16957;SDS011;8595;52.542;11.974;2023-04-03T02:49:50;6.73;;;2.60;;
16957;SDS011;8595;52.542;11.974;2023-04-03T02:52:17;4.17;;;2.17;;
16957;SDS011;8595;52.542;11.974;2023-04-03T02:54:44;7.73;;;2.70;;
16957;SDS011;8595;52.542;11.974;2023-04-03T02:57:11;9.87;;;2.90;;
16957;SDS011;8595;52.542;11.974;2023-04-03T02:59:39;8.17;;;2.80;;
16957;SDS011;8595;52.542;11.974;2023-04-03T03:02:06;7.20;;;2.53;;
16957;SDS011;8595;52.542;11.974;2023-04-03T03:04:33;5.17;;;2.53;;
16957;SDS011;8595;52.542;11.974;2023-04-03T03:07:00;7.97;;;2.60;;
16957;SDS011;8595;52.542;11.974;2023-04-03T03:09:27;9.17;;;2.43;;
16957;SDS011;8595;52.542;11.974;2023-04-03T03:11:54;8.07;;;2.73;;
16957;SDS011;8595;52.542;11.974;2023-04-03T03:14:21;7.10;;;2.40;;
16957;SDS011;8595;52.542;11.974;2023-04-03T03:16:49;8.63;;;2.60;;
16957;SDS011;8595;52.542;11.974;2023-04-03T03:19:16;7.37;;;2.23;;
16957;SDS011;8595;52.542;11.974;2023-04-03T03:21:43;6.27;;;2.87;;
16957;SDS011;8595;52.542;11.974;2023-04-03T03:24:09;5.10;;;3.23;;
16957;SDS011;8595;52.542;11.974;2023-04-03T03:26:37;7.17;;;2.60;;
16957;SDS011;8595;52.542;11.974;2023-04-03T03:29:05;3.70;;;2.80;;
16957;SDS011;8595;52.542;11.974;2023-04-03T03:31:31;9.87;;;3.30;;
16957;SDS011;8595;52.542;11.974;2023-04-03T03:33:59;7.77;;;2.90;;
16957;SDS011;8595;52.542;11.974;2023-04-03T03:36:26;8.00;;;2.70;;
16957;SDS011;8595;52.542;11.974;2023-04-03T03:38:52;10.70;;;3.27;;
16957;SDS011;8595;52.542;11.974;2023-04-03T03:41:19;9.60;;;2.90;;
16957;SDS011;8595;52.542;11.974;2023-04-03T03:43:46;6.70;;;3.13;;
16957;SDS011;8595;52.542;11.974;2023-04-03T03:46:13;7.43;;;2.73;;
16957;SDS011;8595;52.542;11.974;2023-04-03T03:48:40;6.27;;;2.93;;
16957;SDS011;8595;52.542;11.974;2023-04-03T03:51:08;9.17;;;3.23;;
16957;SDS011;8595;52.542;11.974;2023-04-03T03:53:35;6.70;;;2.90;;
16957;SDS011;8595;52.542;11.974;2023-04-03T03:56:02;11.37;;;3.40;;
16957;SDS011;8595;52.542;11.974;2023-04-03T03:58:30;7.80;;;3.30;;
16957;SDS011;8595;52.542;11.974;2023-04-03T04:00:59;7.80;;;3.10;;
16957;SDS011;8595;52.542;11.974;2023-04-03T04:03:26;9.10;;;3.70;;
16957;SDS011;8595;52.542;11.974;2023-04-03T04:05:53;9.53;;;3.60;;
16957;SDS011;8595;52.542;11.974;2023-04-03T04:08:21;6.83;;;3.73;;
16957;SDS011;8595;52.542;11.974;2023-04-03T04:10:48;6.37;;;3.50;;
16957;SDS011;8595;52.542;11.974;2023-04-03T04:13:15;8.90;;;3.00;;
16957;SDS011;8595;52.542;11.974;2023-04-03T04:15:41;10.40;;;3.40;;
16957;SDS011;8595;52.542;11.974;2023-04-03T04:18:09;4.37;;;3.03;;
16957;SDS011;8595;52.542;11.974;2023-04-03T04:20:36;9.33;;;3.30;;
16957;SDS011;8595;52.542;11.974;2023-04-03T04:23:03;8.30;;;3.63;;
16957;SDS011;8595;52.542;11.974;2023-04-03T04:25:31;10.53;;;3.30;;
16957;SDS011;8595;52.542;11.974;2023-04-03T04:27:57;9.97;;;3.63;;
16957;SDS011;8595;52.542;11.974;2023-04-03T04:30:24;8.30;;;3.97;;
16957;SDS011;8595;52.542;11.974;2023-04-03T04:32:52;13.33;;;3.63;;
16957;SDS011;8595;52.542;11.974;2023-04-03T04:35:19;9.13;;;3.50;;
16957;SDS011;8595;52.542;11.974;2023-04-03T04:37:45;9.83;;;3.43;;
16957;SDS011;8595;52.542;11.974;2023-04-03T04:40:13;9.90;;;3.60;;
16957;SDS011;8595;52.542;11.974;2023-04-03T04:42:41;7.87;;;3.73;;
16957;SDS011;8595;52.542;11.974;2023-04-03T04:45:08;6.67;;;3.80;;
16957;SDS011;8595;52.542;11.974;2023-04-03T04:47:35;6.50;;;3.87;;
16957;SDS011;8595;52.542;11.974;2023-04-03T04:50:02;16.07;;;3.80;;
16957;SDS011;8595;52.542;11.974;2023-04-03T04:52:29;15.77;;;4.50;;
16957;SDS011;8595;52.542;11.974;2023-04-03T04:54:57;8.77;;;4.07;;
16957;SDS011;8595;52.542;11.974;2023-04-03T04:57:23;10.20;;;4.30;;
16957;SDS011;8595;52.542;11.974;2023-04-03T04:59:51;8.07;;;4.20;;
16957;SDS011;8595;52.542;11.974;2023-04-03T05:02:19;9.03;;;4.17;;
16957;SDS011;8595;52.542;11.974;2023-04-03T05:04:46;10.87;;;4.20;;
16957;SDS011;8595;52.542;11.974;2023-04-03T05:07:15;10.53;;;4.43;;
16957;SDS011;8595;52.542;11.974;2023-04-03T05:09:41;8.73;;;3.90;;
16957;SDS011;8595;52.542;11.974;2023-04-03T05:12:08;8.53;;;4.27;;
16957;SDS011;8595;52.542;11.974;2023-04-03T05:14:35;9.87;;;4.60;;
16957;SDS011;8595;52.542;11.974;2023-04-03T05:17:03;7.60;;;4.00;;
16957;SDS011;8595;52.542;11.974;2023-04-03T05:19:30;7.13;;;3.73;;
16957;SDS011;8595;52.542;11.974;2023-04-03T05:21:56;8.07;;;3.80;;
16957;SDS011;8595;52.542;11.974;2023-04-03T05:24:23;7.57;;;4.50;;
16957;SDS011;8595;52.542;11.974;2023-04-03T05:26:51;7.20;;;3.90;;
16957;SDS011;8595;52.542;11.974;2023-04-03T05:29:17;8.70;;;3.77;;
16957;SDS011;8595;52.542;11.974;2023-04-03T05:31:44;8.93;;;3.30;;
16957;SDS011;8595;52.542;11.974;2023-04-03T05:34:12;10.63;;;3.77;;
16957;SDS011;8595;52.542;11.974;2023-04-03T05:36:39;6.00;;;3.60;;
16957;SDS011;8595;52.542;11.974;2023-04-03T05:39:06;7.67;;;3.40;;
16957;SDS011;8595;52.542;11.974;2023-04-03T05:41:34;29.47;;;12.83;;
16957;SDS011;8595;52.542;11.974;2023-04-03T05:44:00;51.43;;;20.17;;
16957;SDS011;8595;52.542;11.974;2023-04-03T05:46:27;51.13;;;19.70;;
16957;SDS011;8595;52.542;11.974;2023-04-03T05:48:55;19.47;;;10.63;;
16957;SDS011;8595;52.542;11.974;2023-04-03T05:51:24;9.83;;;6.17;;
16957;SDS011;8595;52.542;11.974;2023-04-03T05:53:52;16.73;;;9.17;;
16957;SDS011;8595;52.542;11.974;2023-04-03T05:56:24;20.67;;;10.63;;
16957;SDS011;8595;52.542;11.974;2023-04-03T05:58:51;16.60;;;10.47;;
16957;SDS011;8595;52.542;11.974;2023-04-03T06:01:18;14.63;;;7.00;;
16957;SDS011;8595;52.542;11.974;2023-04-03T06:03:44;17.57;;;8.60;;
16957;SDS011;8595;52.542;11.974;2023-04-03T06:06:12;26.87;;;11.03;;
16957;SDS011;8595;52.542;11.974;2023-04-03T06:08:41;20.00;;;9.67;;
16957;SDS011;8595;52.542;11.974;2023-04-03T06:11:08;14.83;;;6.93;;
16957;SDS011;8595;52.542;11.974;2023-04-03T06:13:35;10.57;;;4.50;;
16957;SDS011;8595;52.542;11.974;2023-04-03T06:16:02;7.63;;;3.90;;
16957;SDS011;8595;52.542;11.974;2023-04-03T06:18:29;6.30;;;3.40;;
16957;SDS011;8595;52.542;11.974;2023-04-03T06:20:56;10.20;;;3.40;;
16957;SDS011;8595;52.542;11.974;2023-04-03T06:23:23;7.70;;;3.17;;
16957;SDS011;8595;52.542;11.974;2023-04-03T06:25:51;5.33;;;3.60;;
16957;SDS011;8595;52.542;11.974;2023-04-03T06:28:18;6.10;;;3.30;;
16957;SDS011;8595;52.542;11.974;2023-04-03T06:30:45;6.07;;;2.93;;
16957;SDS011;8595;52.542;11.974;2023-04-03T06:33:12;10.33;;;3.33;;
16957;SDS011;8595;52.542;11.974;2023-04-03T06:35:38;9.67;;;2.73;;
16957;SDS011;8595;52.542;11.974;2023-04-03T06:38:06;10.50;;;3.47;;
16957;SDS011;8595;52.542;11.974;2023-04-03T06:40:34;6.23;;;2.77;;
16957;SDS011;8595;52.542;11.974;2023-04-03T06:43:02;5.40;;;3.20;;
16957;SDS011;8595;52.542;11.974;2023-04-03T06:45:30;7.37;;;2.90;;
16957;SDS011;8595;52.542;11.974;2023-04-03T06:47:56;7.03;;;3.53;;
16957;SDS011;8595;52.542;11.974;2023-04-03T06:50:23;6.87;;;3.60;;
16957;SDS011;8595;52.542;11.974;2023-04-03T06:52:51;6.83;;;3.47;;
16957;SDS011;8595;52.542;11.974;2023-04-03T06:55:17;8.03;;;3.20;;
16957;SDS011;8595;52.542;11.974;2023-04-03T06:57:44;5.30;;;2.83;;
16957;SDS011;8595;52.542;11.974;2023-04-03T07:00:14;6.43;;;2.87;;
16957;SDS011;8595;52.542;11.974;2023-04-03T07:02:41;8.53;;;4.27;;
16957;SDS011;8595;52.542;11.974;2023-04-03T07:05:08;11.37;;;5.97;;
16957;SDS011;8595;52.542;11.974;2023-04-03T07:07:35;10.97;;;4.33;;
16957;SDS011;8595;52.542;11.974;2023-04-03T07:10:03;6.23;;;2.90;;
16957;SDS011;8595;52.542;11.974;2023-04-03T07:12:31;8.03;;;3.13;;
16957;SDS011;8595;52.542;11.974;2023-04-03T07:14:58;5.73;;;2.40;;
16957;SDS011;8595;52.542;11.974;2023-04-03T07:17:26;4.43;;;2.40;;
16957;SDS011;8595;52.542;11.974;2023-04-03T07:19:53;8.00;;;3.07;;
16957;SDS011;8595;52.542;11.974;2023-04-03T07:22:19;7.03;;;2.63;;
16957;SDS011;8595;52.542;11.974;2023-04-03T07:24:46;4.77;;;2.67;;
16957;SDS011;8595;52.542;11.974;2023-04-03T07:27:12;4.17;;;2.80;;
16957;SDS011;8595;52.542;11.974;2023-04-03T07:29:39;5.10;;;2.73;;
16957;SDS011;8595;52.542;11.974;2023-04-03T07:32:06;5.40;;;2.63;;
16957;SDS011;8595;52.542;11.974;2023-04-03T07:34:34;6.53;;;2.40;;
16957;SDS011;8595;52.542;11.974;2023-04-03T07:37:01;5.50;;;2.07;;
16957;SDS011;8595;52.542;11.974;2023-04-03T07:39:28;9.70;;;2.33;;
16957;SDS011;8595;52.542;11.974;2023-04-03T07:41:55;6.70;;;2.47;;
16957;SDS011;8595;52.542;11.974;2023-04-03T07:44:21;6.20;;;2.47;;
16957;SDS011;8595;52.542;11.974;2023-04-03T07:46:48;4.43;;;2.73;;
16957;SDS011;8595;52.542;11.974;2023-04-03T07:49:15;3.37;;;1.97;;
16957;SDS011;8595;52.542;11.974;2023-04-03T07:51:44;7.77;;;3.00;;
16957;SDS011;8595;52.542;11.974;2023-04-03T07:54:11;4.20;;;2.67;;
16957;SDS011;8595;52.542;11.974;2023-04-03T07:56:38;8.53;;;2.80;;
16957;SDS011;8595;52.542;11.974;2023-04-03T07:59:05;10.63;;;2.83;;
16957;SDS011;8595;52.542;11.974;2023-04-03T08:01:32;10.37;;;2.87;;
16957;SDS011;8595;52.542;11.974;2023-04-03T08:03:59;4.63;;;2.50;;
16957;SDS011;8595;52.542;11.974;2023-04-03T08:06:26;8.33;;;2.50;;
16957;SDS011;8595;52.542;11.974;2023-04-03T08:08:55;6.93;;;2.43;;
16957;SDS011;8595;52.542;11.974;2023-04-03T08:11:23;4.60;;;2.27;;
16957;SDS011;8595;52.542;11.974;2023-04-03T08:13:51;9.20;;;2.40;;
16957;SDS011;8595;52.542;11.974;2023-04-03T08:16:18;4.97;;;1.90;;
16957;SDS011;8595;52.542;11.974;2023-04-03T08:18:48;6.53;;;2.25;;
16957;SDS011;8595;52.542;11.974;2023-04-03T08:21:14;3.95;;;2.00;;
16957;SDS011;8595;52.542;11.974;2023-04-03T08:23:42;4.40;;;1.77;;
16957;SDS011;8595;52.542;11.974;2023-04-03T08:26:11;4.18;;;1.80;;
16957;SDS011;8595;52.542;11.974;2023-04-03T08:28:39;4.67;;;2.10;;
16957;SDS011;8595;52.542;11.974;2023-04-03T08:31:07;6.60;;;2.30;;
16957;SDS011;8595;52.542;11.974;2023-04-03T08:33:37;5.40;;;1.92;;
16957;SDS011;8595;52.542;11.974;2023-04-03T08:36:04;3.65;;;1.70;;
16957;SDS011;8595;52.542;11.974;2023-04-03T08:38:32;4.43;;;1.90;;
16957;SDS011;8595;52.542;11.974;2023-04-03T08:41:02;3.95;;;1.90;;
16957;SDS011;8595;52.542;11.974;2023-04-03T08:43:41;4.88;;;1.70;;
16957;SDS011;8595;52.542;11.974;2023-04-03T08:46:21;4.63;;;1.70;;
16957;SDS011;8595;52.542;11.974;2023-04-03T08:48:51;4.03;;;1.85;;
16957;SDS011;8595;52.542;11.974;2023-04-03T08:51:19;2.92;;;1.60;;
16957;SDS011;8595;52.542;11.974;2023-04-03T08:53:51;4.13;;;2.00;;
16957;SDS011;8595;52.542;11.974;2023-04-03T08:56:23;6.13;;;1.73;;
16957;SDS011;8595;52.542;11.974;2023-04-03T08:58:52;7.47;;;2.15;;
16957;SDS011;8595;52.542;11.974;2023-04-03T09:01:23;5.65;;;2.45;;
16957;SDS011;8595;52.542;11.974;2023-04-03T09:03:53;3.05;;;1.70;;
16957;SDS011;8595;52.542;11.974;2023-04-03T09:06:21;5.93;;;2.00;;
16957;SDS011;8595;52.542;11.974;2023-04-03T09:08:51;3.13;;;2.03;;
16957;SDS011;8595;52.542;11.974;2023-04-03T09:11:33;3.40;;;2.00;;
16957;SDS011;8595;52.542;11.974;2023-04-03T09:14:14;6.63;;;2.60;;
16957;SDS011;8595;52.542;11.974;2023-04-03T09:16:48;4.73;;;2.13;;
16957;SDS011;8595;52.542;11.974;2023-04-03T09:19:21;5.47;;;2.43;;
16957;SDS011;8595;52.542;11.974;2023-04-03T09:21:57;5.47;;;2.00;;
16957;SDS011;8595;52.542;11.974;2023-04-03T09:24:24;5.17;;;2.37;;
16957;SDS011;8595;52.542;11.974;2023-04-03T09:27:03;6.47;;;2.20;;
16957;SDS011;8595;52.542;11.974;2023-04-03T09:29:32;4.07;;;2.50;;
16957;SDS011;8595;52.542;11.974;2023-04-03T09:32:02;7.77;;;2.43;;
16957;SDS011;8595;52.542;11.974;2023-04-03T09:34:53;3.20;;;2.23;;
16957;SDS011;8595;52.542;11.974;2023-04-03T09:37:35;4.43;;;2.20;;
16957;SDS011;8595;52.542;11.974;2023-04-03T09:40:05;5.13;;;2.83;;
16957;SDS011;8595;52.542;11.974;2023-04-03T09:42:53;6.23;;;2.77;;
16957;SDS011;8595;52.542;11.974;2023-04-03T09:45:24;5.57;;;2.73;;
16957;SDS011;8595;52.542;11.974;2023-04-03T09:48:03;7.03;;;2.67;;
16957;SDS011;8595;52.542;11.974;2023-04-03T09:50:32;4.70;;;2.30;;
16957;SDS011;8595;52.542;11.974;2023-04-03T09:53:02;6.47;;;2.80;;
16957;SDS011;8595;52.542;11.974;2023-04-03T09:55:31;10.00;;;3.10;;
16957;SDS011;8595;52.542;11.974;2023-04-03T09:57:59;5.97;;;2.83;;
16957;SDS011;8595;52.542;11.974;2023-04-03T10:00:30;6.17;;;3.40;;
16957;SDS011;8595;52.542;11.974;2023-04-03T10:02:59;6.13;;;2.60;;
16957;SDS011;8595;52.542;11.974;2023-04-03T10:05:28;4.67;;;2.40;;
16957;SDS011;8595;52.542;11.974;2023-04-03T10:08:10;4.53;;;2.20;;
16957;SDS011;8595;52.542;11.974;2023-04-03T10:11:04;3.77;;;2.50;;
16957;SDS011;8595;52.542;11.974;2023-04-03T10:13:36;4.90;;;2.50;;
16957;SDS011;8595;52.542;11.974;2023-04-03T10:16:17;5.07;;;2.10;;
16957;SDS011;8595;52.542;11.974;2023-04-03T10:18:46;3.80;;;2.57;;
16957;SDS011;8595;52.542;11.974;2023-04-03T10:21:23;4.27;;;2.60;;
16957;SDS011;8595;52.542;11.974;2023-04-03T10:24:01;5.60;;;2.87;;
16957;SDS011;8595;52.542;11.974;2023-04-03T10:26:36;3.77;;;2.30;;
16957;SDS011;8595;52.542;11.974;2023-04-03T10:29:08;4.73;;;2.50;;
16957;SDS011;8595;52.542;11.974;2023-04-03T10:31:48;5.23;;;2.70;;
16957;SDS011;8595;52.542;11.974;2023-04-03T10:34:28;4.73;;;2.67;;
16957;SDS011;8595;52.542;11.974;2023-04-03T10:37:00;5.37;;;2.30;;
16957;SDS011;8595;52.542;11.974;2023-04-03T10:39:32;7.50;;;2.83;;
16957;SDS011;8595;52.542;11.974;2023-04-03T10:42:05;5.33;;;2.40;;
16957;SDS011;8595;52.542;11.974;2023-04-03T10:44:41;8.83;;;2.47;;
16957;SDS011;8595;52.542;11.974;2023-04-03T10:47:20;5.70;;;2.50;;
16957;SDS011;8595;52.542;11.974;2023-04-03T10:49:52;4.47;;;2.33;;
16957;SDS011;8595;52.542;11.974;2023-04-03T10:52:28;5.17;;;2.50;;
16957;SDS011;8595;52.542;11.974;2023-04-03T10:55:05;6.93;;;2.40;;
16957;SDS011;8595;52.542;11.974;2023-04-03T10:57:40;4.97;;;2.43;;
16957;SDS011;8595;52.542;11.974;2023-04-03T11:00:13;4.17;;;2.80;;
16957;SDS011;8595;52.542;11.974;2023-04-03T11:02:45;5.10;;;2.60;;
16957;SDS011;8595;52.542;11.974;2023-04-03T11:05:18;7.45;;;4.43;;
16957;SDS011;8595;52.542;11.974;2023-04-03T11:07:52;8.82;;;3.50;;
16957;SDS011;8595;52.542;11.974;2023-04-03T11:10:22;4.97;;;2.42;;
16957;SDS011;8595;52.542;11.974;2023-04-03T11:12:52;4.90;;;2.20;;
16957;SDS011;8595;52.542;11.974;2023-04-03T11:15:25;3.10;;;1.85;;
16957;SDS011;8595;52.542;11.974;2023-04-03T11:17:58;4.05;;;2.13;;
16957;SDS011;8595;52.542;11.974;2023-04-03T11:20:30;4.95;;;1.75;;
16957;SDS011;8595;52.542;11.974;2023-04-03T11:23:00;6.00;;;2.15;;
16957;SDS011;8595;52.542;11.974;2023-04-03T11:25:29;3.60;;;1.67;;
16957;SDS011;8595;52.542;11.974;2023-04-03T11:27:58;2.60;;;1.63;;
16957;SDS011;8595;52.542;11.974;2023-04-03T11:30:27;4.05;;;2.65;;
16957;SDS011;8595;52.542;11.974;2023-04-03T11:36:00;5.68;;;2.40;;
16957;SDS011;8595;52.542;11.974;2023-04-03T11:38:33;3.67;;;1.83;;
16957;SDS011;8595;52.542;11.974;2023-04-03T11:41:06;5.80;;;1.50;;
16957;SDS011;8595;52.542;11.974;2023-04-03T11:43:37;4.22;;;1.83;;
16957;SDS011;8595;52.542;11.974;2023-04-03T11:46:07;3.60;;;1.83;;
16957;SDS011;8595;52.542;11.974;2023-04-03T11:48:45;2.97;;;1.75;;
16957;SDS011;8595;52.542;11.974;2023-04-03T11:51:39;3.35;;;1.70;;
16957;SDS011;8595;52.542;11.974;2023-04-03T12:03:11;3.83;;;1.60;;
16957;SDS011;8595;52.542;11.974;2023-04-03T12:12:31;2.78;;;1.50;;
16957;SDS011;8595;52.542;11.974;2023-04-03T12:15:23;7.57;;;1.70;;
16957;SDS011;8595;52.542;11.974;2023-04-03T12:17:52;5.63;;;1.75;;
16957;SDS011;8595;52.542;11.974;2023-04-03T12:23:32;3.15;;;1.92;;
16957;SDS011;8595;52.542;11.974;2023-04-03T12:26:01;3.05;;;2.03;;
16957;SDS011;8595;52.542;11.974;2023-04-03T12:28:46;2.35;;;1.80;;
16957;SDS011;8595;52.542;11.974;2023-04-03T12:31:15;5.95;;;2.00;;
16957;SDS011;8595;52.542;11.974;2023-04-03T12:33:48;4.72;;;1.90;;
16957;SDS011;8595;52.542;11.974;2023-04-03T12:36:28;4.82;;;2.67;;
16957;SDS011;8595;52.542;11.974;2023-04-03T12:39:07;4.10;;;2.53;;
16957;SDS011;8595;52.542;11.974;2023-04-03T12:41:45;4.78;;;2.25;;
16957;SDS011;8595;52.542;11.974;2023-04-03T12:47:23;3.90;;;2.05;;
16957;SDS011;8595;52.542;11.974;2023-04-03T12:49:53;5.13;;;1.95;;
16957;SDS011;8595;52.542;11.974;2023-04-03T12:52:27;3.55;;;1.90;;
16957;SDS011;8595;52.542;11.974;2023-04-03T12:55:00;3.13;;;1.67;;
16957;SDS011;8595;52.542;11.974;2023-04-03T12:57:29;4.15;;;2.28;;
16957;SDS011;8595;52.542;11.974;2023-04-03T12:59:57;3.35;;;1.92;;
16957;SDS011;8595;52.542;11.974;2023-04-03T13:02:25;2.90;;;1.60;;
16957;SDS011;8595;52.542;11.974;2023-04-03T13:04:55;5.05;;;1.67;;
16957;SDS011;8595;52.542;11.974;2023-04-03T13:07:25;3.63;;;1.73;;
16957;SDS011;8595;52.542;11.974;2023-04-03T13:10:01;2.95;;;1.83;;
16957;SDS011;8595;52.542;11.974;2023-04-03T13:12:45;3.72;;;1.60;;
16957;SDS011;8595;52.542;11.974;2023-04-03T13:15:14;3.85;;;2.05;;
16957;SDS011;8595;52.542;11.974;2023-04-03T13:17:43;3.78;;;2.03;;
16957;SDS011;8595;52.542;11.974;2023-04-03T13:20:11;3.65;;;1.80;;
16957;SDS011;8595;52.542;11.974;2023-04-03T13:22:40;4.05;;;1.80;;
16957;SDS011;8595;52.542;11.974;2023-04-03T13:25:15;3.47;;;1.80;;
16957;SDS011;8595;52.542;11.974;2023-04-03T13:27:43;2.83;;;1.88;;
16957;SDS011;8595;52.542;11.974;2023-04-03T13:33:03;3.75;;;1.98;;
16957;SDS011;8595;52.542;11.974;2023-04-03T13:35:34;4.45;;;2.25;;
16957;SDS011;8595;52.542;11.974;2023-04-03T13:38:04;6.25;;;2.45;;
16957;SDS011;8595;52.542;11.974;2023-04-03T13:40:35;3.15;;;2.15;;
16957;SDS011;8595;52.542;11.974;2023-04-03T13:43:18;5.15;;;2.22;;
16957;SDS011;8595;52.542;11.974;2023-04-03T13:46:03;2.90;;;2.20;;
16957;SDS011;8595;52.542;11.974;2023-04-03T13:48:39;4.63;;;2.38;;
16957;SDS011;8595;52.542;11.974;2023-04-03T13:51:16;5.68;;;2.35;;
16957;SDS011;8595;52.542;11.974;2023-04-03T13:53:47;7.13;;;2.20;;
16957;SDS011;8595;52.542;11.974;2023-04-03T13:56:18;3.40;;;2.50;;
16957;SDS011;8595;52.542;11.974;2023-04-03T13:58:59;2.63;;;2.08;;
16957;SDS011;8595;52.542;11.974;2023-04-03T14:01:33;3.72;;;2.30;;
16957;SDS011;8595;52.542;11.974;2023-04-03T14:04:13;5.88;;;2.00;;
16957;SDS011;8595;52.542;11.974;2023-04-03T14:06:43;3.20;;;2.22;;
16957;SDS011;8595;52.542;11.974;2023-04-03T14:09:12;4.25;;;2.33;;
16957;SDS011;8595;52.542;11.974;2023-04-03T14:11:41;4.05;;;2.25;;
16957;SDS011;8595;52.542;11.974;2023-04-03T14:14:11;4.60;;;2.65;;
16957;SDS011;8595;52.542;11.974;2023-04-03T14:16:41;3.25;;;1.95;;
16957;SDS011;8595;52.542;11.974;2023-04-03T14:19:16;2.58;;;1.73;;
16957;SDS011;8595;52.542;11.974;2023-04-03T14:21:45;5.30;;;2.13;;
16957;SDS011;8595;52.542;11.974;2023-04-03T14:24:12;4.82;;;1.85;;
16957;SDS011;8595;52.542;11.974;2023-04-03T14:26:40;3.08;;;2.28;;
16957;SDS011;8595;52.542;11.974;2023-04-03T14:29:09;3.05;;;1.98;;
16957;SDS011;8595;52.542;11.974;2023-04-03T14:31:37;5.07;;;2.58;;
16957;SDS011;8595;52.542;11.974;2023-04-03T14:34:04;3.97;;;2.03;;
16957;SDS011;8595;52.542;11.974;2023-04-03T14:36:33;3.67;;;1.85;;
16957;SDS011;8595;52.542;11.974;2023-04-03T14:39:00;3.10;;;1.70;;
16957;SDS011;8595;52.542;11.974;2023-04-03T14:41:28;2.85;;;1.80;;
16957;SDS011;8595;52.542;11.974;2023-04-03T14:43:57;2.85;;;1.60;;
16957;SDS011;8595;52.542;11.974;2023-04-03T14:46:25;3.30;;;2.25;;
16957;SDS011;8595;52.542;11.974;2023-04-03T14:48:54;3.72;;;1.92;;
16957;SDS011;8595;52.542;11.974;2023-04-03T14:51:21;4.57;;;2.30;;
16957;SDS011;8595;52.542;11.974;2023-04-03T14:53:48;3.53;;;2.47;;
16957;SDS011;8595;52.542;11.974;2023-04-03T14:56:17;2.80;;;2.17;;
16957;SDS011;8595;52.542;11.974;2023-04-03T14:58:47;2.55;;;1.92;;
16957;SDS011;8595;52.542;11.974;2023-04-03T15:01:17;2.75;;;2.10;;
16957;SDS011;8595;52.542;11.974;2023-04-03T15:03:44;2.60;;;1.83;;
16957;SDS011;8595;52.542;11.974;2023-04-03T15:06:12;3.42;;;2.13;;
16957;SDS011;8595;52.542;11.974;2023-04-03T15:08:41;3.63;;;2.42;;
16957;SDS011;8595;52.542;11.974;2023-04-03T15:11:08;5.57;;;2.60;;
16957;SDS011;8595;52.542;11.974;2023-04-03T15:13:36;4.70;;;2.60;;
16957;SDS011;8595;52.542;11.974;2023-04-03T15:16:03;7.15;;;3.67;;
16957;SDS011;8595;52.542;11.974;2023-04-03T15:18:33;7.47;;;3.60;;
16957;SDS011;8595;52.542;11.974;2023-04-03T15:21:03;6.55;;;3.50;;
16957;SDS011;8595;52.542;11.974;2023-04-03T15:23:29;5.45;;;2.15;;
16957;SDS011;8595;52.542;11.974;2023-04-03T15:25:56;3.25;;;2.00;;
16957;SDS011;8595;52.542;11.974;2023-04-03T15:28:25;3.53;;;2.22;;
16957;SDS011;8595;52.542;11.974;2023-04-03T15:30:54;4.63;;;2.00;;